This is the latest recevied weather packets stored in our database for station/object AG1T-20. If no packets are shown the sender has not sent any weather packets the latest 10 day(s).
| Time | Temp. | Humidity | Pressure | Rain* | Wind** | Luminosity | Snow |
|---|---|---|---|---|---|---|---|
| 1777579205 | 13.89° C | 28% | 1020.6 hPa | 0 mm | - | 256 W/m² | - |
| 1777578605 | 15° C | - | - | 0 mm | - | 111 W/m² | - |
| 1777578005 | 13.89° C | - | - | 0 mm | - | 107 W/m² | - |
| 1777577405 | 13.33° C | - | - | 0 mm | - | 104 W/m² | - |
| 1777576805 | 14.44° C | 38% | 1021.2 hPa | 0 mm | - | 655 W/m² | - |
| 1777576205 | 13.89° C | - | - | 0 mm | - | 103 W/m² | - |
| 1777575605 | 13.33° C | - | - | 0 mm | - | 104 W/m² | - |
| 1777575005 | 13.33° C | - | - | 0 mm | - | 102 W/m² | - |
| 1777574405 | 13.33° C | - | - | 0 mm | - | 101 W/m² | - |
| 1777573805 | 13.33° C | 43% | 1021.8 hPa | 0 mm | - | 987 W/m² | - |
| 1777573205 | 12.78° C | 44% | 1021.8 hPa | 0 mm | - | 985 W/m² | - |
| 1777572605 | 12.22° C | 47% | 1021.8 hPa | 0 mm | - | 990 W/m² | - |
| 1777572005 | 12.22° C | 51% | 1021.8 hPa | 0 mm | - | 992 W/m² | - |
| 1777571405 | 11.67° C | 46% | 1022.4 hPa | 0 mm | - | 985 W/m² | - |
| 1777570805 | 12.22° C | 49% | 1022.4 hPa | 0 mm | - | 981 W/m² | - |
| 1777570205 | 11.11° C | 53% | 1022.4 hPa | 0 mm | - | 969 W/m² | - |
| 1777569605 | 11.11° C | 53% | 1022.4 hPa | 0 mm | - | 971 W/m² | - |
| 1777569005 | 10.56° C | 54% | 1022.4 hPa | 0 mm | - | 962 W/m² | - |
| 1777568405 | 11.11° C | 52% | 1022.4 hPa | 0 mm | - | 952 W/m² | - |
| 1777567805 | 10° C | 55% | 1022.8 hPa | 0 mm | - | 942 W/m² | - |
| 1777567205 | 10.56° C | 56% | 1022.8 hPa | 0 mm | - | 932 W/m² | - |
| 1777566605 | 9.44° C | 61% | 1022.8 hPa | 0 mm | - | 918 W/m² | - |
| 1777566005 | 8.89° C | 63% | 1022.8 hPa | 0 mm | - | 899 W/m² | - |
| 1777565405 | 8.33° C | 63% | 1022.8 hPa | 0 mm | - | 876 W/m² | - |
| 1777564805 | 7.78° C | 64% | 1022.8 hPa | 0 mm | - | 863 W/m² | - |
* Rain latest hour (hover to see other rain measurements)
** Current wind speed in m/s (hover to see current wind gust speed)